sensor_id;sensor_type;location;lat;lon;timestamp;P1;durP1;ratioP1;P2;durP2;ratioP2
42226;SDS011;27892;52.378;13.122;2023-05-14T00:02:12;8.97;;;6.60;;
42226;SDS011;27892;52.378;13.122;2023-05-14T00:04:57;7.70;;;6.40;;
42226;SDS011;27892;52.378;13.122;2023-05-14T00:07:41;6.50;;;5.80;;
42226;SDS011;27892;52.378;13.122;2023-05-14T00:10:26;5.77;;;5.13;;
42226;SDS011;27892;52.378;13.122;2023-05-14T00:13:10;4.97;;;4.47;;
42226;SDS011;27892;52.378;13.122;2023-05-14T00:15:54;5.53;;;4.97;;
42226;SDS011;27892;52.378;13.122;2023-05-14T00:18:38;5.83;;;4.70;;
42226;SDS011;27892;52.378;13.122;2023-05-14T00:21:22;5.00;;;4.50;;
42226;SDS011;27892;52.378;13.122;2023-05-14T00:24:07;5.20;;;4.70;;
42226;SDS011;27892;52.378;13.122;2023-05-14T00:26:51;5.77;;;4.80;;
42226;SDS011;27892;52.378;13.122;2023-05-14T00:29:35;5.93;;;4.90;;
42226;SDS011;27892;52.378;13.122;2023-05-14T00:32:19;5.80;;;4.63;;
42226;SDS011;27892;52.378;13.122;2023-05-14T00:35:04;5.20;;;4.70;;
42226;SDS011;27892;52.378;13.122;2023-05-14T00:37:49;5.00;;;4.50;;
42226;SDS011;27892;52.378;13.122;2023-05-14T00:40:33;5.43;;;4.83;;
42226;SDS011;27892;52.378;13.122;2023-05-14T00:43:18;5.27;;;4.77;;
42226;SDS011;27892;52.378;13.122;2023-05-14T00:46:03;4.73;;;4.00;;
42226;SDS011;27892;52.378;13.122;2023-05-14T00:48:48;4.93;;;4.30;;
42226;SDS011;27892;52.378;13.122;2023-05-14T00:51:33;4.83;;;4.33;;
42226;SDS011;27892;52.378;13.122;2023-05-14T00:54:17;6.30;;;5.70;;
42226;SDS011;27892;52.378;13.122;2023-05-14T00:57:03;6.77;;;5.57;;
42226;SDS011;27892;52.378;13.122;2023-05-14T00:59:49;5.90;;;5.30;;
42226;SDS011;27892;52.378;13.122;2023-05-14T01:02:33;5.43;;;4.93;;
42226;SDS011;27892;52.378;13.122;2023-05-14T01:05:17;5.60;;;5.07;;
42226;SDS011;27892;52.378;13.122;2023-05-14T01:08:08;5.77;;;5.20;;
42226;SDS011;27892;52.378;13.122;2023-05-14T01:11:05;8.50;;;7.20;;
42226;SDS011;27892;52.378;13.122;2023-05-14T01:14:02;8.07;;;7.00;;
42226;SDS011;27892;52.378;13.122;2023-05-14T01:16:51;10.13;;;8.73;;
42226;SDS011;27892;52.378;13.122;2023-05-14T01:19:40;10.60;;;9.50;;
42226;SDS011;27892;52.378;13.122;2023-05-14T01:22:25;12.83;;;10.20;;
42226;SDS011;27892;52.378;13.122;2023-05-14T01:25:09;11.80;;;10.33;;
42226;SDS011;27892;52.378;13.122;2023-05-14T01:33:54;11.90;;;10.17;;
42226;SDS011;27892;52.378;13.122;2023-05-14T01:36:41;11.60;;;10.40;;
42226;SDS011;27892;52.378;13.122;2023-05-14T01:39:26;13.90;;;12.40;;
42226;SDS011;27892;52.378;13.122;2023-05-14T01:42:11;13.83;;;11.80;;
42226;SDS011;27892;52.378;13.122;2023-05-14T01:44:55;13.17;;;11.20;;
42226;SDS011;27892;52.378;13.122;2023-05-14T01:47:41;11.90;;;10.70;;
42226;SDS011;27892;52.378;13.122;2023-05-14T01:50:25;11.40;;;10.17;;
42226;SDS011;27892;52.378;13.122;2023-05-14T01:53:09;10.30;;;9.30;;
42226;SDS011;27892;52.378;13.122;2023-05-14T01:55:54;11.80;;;10.20;;
42226;SDS011;27892;52.378;13.122;2023-05-14T01:58:38;11.33;;;9.77;;
42226;SDS011;27892;52.378;13.122;2023-05-14T02:01:22;10.33;;;9.07;;
42226;SDS011;27892;52.378;13.122;2023-05-14T02:04:08;9.17;;;8.20;;
42226;SDS011;27892;52.378;13.122;2023-05-14T02:06:52;9.77;;;8.50;;
42226;SDS011;27892;52.378;13.122;2023-05-14T02:09:37;9.27;;;8.20;;
42226;SDS011;27892;52.378;13.122;2023-05-14T02:12:22;9.13;;;8.13;;
42226;SDS011;27892;52.378;13.122;2023-05-14T02:15:06;10.20;;;8.40;;
42226;SDS011;27892;52.378;13.122;2023-05-14T02:17:53;10.27;;;8.73;;
42226;SDS011;27892;52.378;13.122;2023-05-14T02:20:37;10.33;;;8.97;;
42226;SDS011;27892;52.378;13.122;2023-05-14T02:23:22;10.57;;;8.87;;
42226;SDS011;27892;52.378;13.122;2023-05-14T02:26:06;12.37;;;10.00;;
42226;SDS011;27892;52.378;13.122;2023-05-14T02:28:52;10.87;;;9.37;;
42226;SDS011;27892;52.378;13.122;2023-05-14T02:31:36;12.17;;;9.70;;
42226;SDS011;27892;52.378;13.122;2023-05-14T02:34:21;10.93;;;8.93;;
42226;SDS011;27892;52.378;13.122;2023-05-14T02:37:05;11.30;;;8.87;;
42226;SDS011;27892;52.378;13.122;2023-05-14T02:39:49;10.60;;;9.50;;
42226;SDS011;27892;52.378;13.122;2023-05-14T02:42:33;10.67;;;8.70;;
42226;SDS011;27892;52.378;13.122;2023-05-14T02:45:18;10.63;;;9.10;;
42226;SDS011;27892;52.378;13.122;2023-05-14T02:48:02;10.27;;;8.63;;
42226;SDS011;27892;52.378;13.122;2023-05-14T02:50:47;8.47;;;7.57;;
42226;SDS011;27892;52.378;13.122;2023-05-14T02:53:32;7.77;;;6.97;;
42226;SDS011;27892;52.378;13.122;2023-05-14T02:56:16;7.83;;;6.97;;
42226;SDS011;27892;52.378;13.122;2023-05-14T02:59:00;10.00;;;8.57;;
42226;SDS011;27892;52.378;13.122;2023-05-14T03:01:44;12.90;;;10.20;;
42226;SDS011;27892;52.378;13.122;2023-05-14T03:04:28;11.63;;;9.90;;
42226;SDS011;27892;52.378;13.122;2023-05-14T03:07:12;12.10;;;9.80;;
42226;SDS011;27892;52.378;13.122;2023-05-14T03:09:56;9.20;;;8.20;;
42226;SDS011;27892;52.378;13.122;2023-05-14T03:12:42;10.73;;;9.57;;
42226;SDS011;27892;52.378;13.122;2023-05-14T03:15:27;11.43;;;9.67;;
42226;SDS011;27892;52.378;13.122;2023-05-14T03:18:14;9.40;;;8.13;;
42226;SDS011;27892;52.378;13.122;2023-05-14T03:20:58;9.90;;;8.23;;
42226;SDS011;27892;52.378;13.122;2023-05-14T03:23:43;10.03;;;8.50;;
42226;SDS011;27892;52.378;13.122;2023-05-14T03:26:27;8.70;;;7.77;;
42226;SDS011;27892;52.378;13.122;2023-05-14T03:29:11;10.20;;;7.60;;
42226;SDS011;27892;52.378;13.122;2023-05-14T03:31:55;7.57;;;6.77;;
42226;SDS011;27892;52.378;13.122;2023-05-14T03:34:39;7.63;;;6.83;;
42226;SDS011;27892;52.378;13.122;2023-05-14T03:37:24;7.37;;;6.13;;
42226;SDS011;27892;52.378;13.122;2023-05-14T03:40:08;7.20;;;6.50;;
42226;SDS011;27892;52.378;13.122;2023-05-14T03:42:53;9.57;;;7.93;;
42226;SDS011;27892;52.378;13.122;2023-05-14T03:45:38;8.50;;;7.40;;
42226;SDS011;27892;52.378;13.122;2023-05-14T03:48:23;9.63;;;8.23;;
42226;SDS011;27892;52.378;13.122;2023-05-14T03:50:48;12.10;;;9.90;;
42226;SDS011;27892;52.378;13.122;2023-05-14T03:53:15;11.00;;;9.10;;
42226;SDS011;27892;52.378;13.122;2023-05-14T03:55:40;10.70;;;9.53;;
42226;SDS011;27892;52.378;13.122;2023-05-14T03:58:25;10.17;;;8.97;;
42226;SDS011;27892;52.378;13.122;2023-05-14T04:01:09;11.70;;;9.83;;
42226;SDS011;27892;52.378;13.122;2023-05-14T04:03:53;12.83;;;10.67;;
42226;SDS011;27892;52.378;13.122;2023-05-14T04:06:37;10.73;;;9.57;;
42226;SDS011;27892;52.378;13.122;2023-05-14T04:09:21;11.70;;;9.43;;
42226;SDS011;27892;52.378;13.122;2023-05-14T04:12:06;10.97;;;9.17;;
42226;SDS011;27892;52.378;13.122;2023-05-14T04:14:50;10.17;;;8.13;;
42226;SDS011;27892;52.378;13.122;2023-05-14T04:17:35;8.73;;;7.40;;
42226;SDS011;27892;52.378;13.122;2023-05-14T04:20:19;10.10;;;8.00;;
42226;SDS011;27892;52.378;13.122;2023-05-14T04:23:03;8.70;;;7.80;;
42226;SDS011;27892;52.378;13.122;2023-05-14T04:25:47;7.33;;;6.63;;
42226;SDS011;27892;52.378;13.122;2023-05-14T04:28:31;9.80;;;8.20;;
42226;SDS011;27892;52.378;13.122;2023-05-14T04:31:15;8.93;;;8.00;;
42226;SDS011;27892;52.378;13.122;2023-05-14T04:33:59;9.23;;;8.13;;
42226;SDS011;27892;52.378;13.122;2023-05-14T04:36:43;11.17;;;9.90;;
42226;SDS011;27892;52.378;13.122;2023-05-14T04:39:28;11.73;;;9.57;;
42226;SDS011;27892;52.378;13.122;2023-05-14T04:42:12;12.67;;;9.87;;
42226;SDS011;27892;52.378;13.122;2023-05-14T04:44:56;11.83;;;9.27;;
42226;SDS011;27892;52.378;13.122;2023-05-14T04:47:41;10.10;;;8.07;;
42226;SDS011;27892;52.378;13.122;2023-05-14T04:50:25;8.27;;;7.43;;
42226;SDS011;27892;52.378;13.122;2023-05-14T04:53:09;8.57;;;7.67;;
42226;SDS011;27892;52.378;13.122;2023-05-14T04:55:54;7.63;;;6.93;;
42226;SDS011;27892;52.378;13.122;2023-05-14T04:58:38;7.87;;;7.07;;
42226;SDS011;27892;52.378;13.122;2023-05-14T05:01:22;7.00;;;6.30;;
42226;SDS011;27892;52.378;13.122;2023-05-14T05:04:07;7.47;;;6.60;;
42226;SDS011;27892;52.378;13.122;2023-05-14T05:06:51;6.93;;;5.93;;
42226;SDS011;27892;52.378;13.122;2023-05-14T05:09:36;6.93;;;6.23;;
42226;SDS011;27892;52.378;13.122;2023-05-14T05:12:20;8.63;;;7.10;;
42226;SDS011;27892;52.378;13.122;2023-05-14T05:15:04;6.60;;;5.90;;
42226;SDS011;27892;52.378;13.122;2023-05-14T05:17:49;6.00;;;5.40;;
42226;SDS011;27892;52.378;13.122;2023-05-14T05:20:34;5.43;;;4.93;;
42226;SDS011;27892;52.378;13.122;2023-05-14T05:23:18;9.93;;;6.20;;
42226;SDS011;27892;52.378;13.122;2023-05-14T05:26:02;6.80;;;6.10;;
42226;SDS011;27892;52.378;13.122;2023-05-14T05:28:46;7.23;;;5.67;;
42226;SDS011;27892;52.378;13.122;2023-05-14T05:31:30;6.10;;;5.50;;
42226;SDS011;27892;52.378;13.122;2023-05-14T05:34:15;6.70;;;5.80;;
42226;SDS011;27892;52.378;13.122;2023-05-14T05:37:00;5.57;;;5.07;;
42226;SDS011;27892;52.378;13.122;2023-05-14T05:39:44;6.33;;;5.50;;
42226;SDS011;27892;52.378;13.122;2023-05-14T05:42:30;8.60;;;6.10;;
42226;SDS011;27892;52.378;13.122;2023-05-14T05:45:14;8.27;;;6.13;;
42226;SDS011;27892;52.378;13.122;2023-05-14T05:47:58;10.43;;;5.87;;
42226;SDS011;27892;52.378;13.122;2023-05-14T05:50:43;8.67;;;6.10;;
42226;SDS011;27892;52.378;13.122;2023-05-14T05:53:30;6.70;;;6.00;;
42226;SDS011;27892;52.378;13.122;2023-05-14T05:56:14;6.30;;;5.10;;
42226;SDS011;27892;52.378;13.122;2023-05-14T05:58:58;6.45;;;5.38;;
42226;SDS011;27892;52.378;13.122;2023-05-14T06:01:42;5.80;;;4.55;;
42226;SDS011;27892;52.378;13.122;2023-05-14T06:04:26;6.43;;;5.65;;
42226;SDS011;27892;52.378;13.122;2023-05-14T06:07:10;6.50;;;5.15;;
42226;SDS011;27892;52.378;13.122;2023-05-14T06:09:55;6.50;;;4.63;;
42226;SDS011;27892;52.378;13.122;2023-05-14T06:12:39;5.90;;;5.13;;
42226;SDS011;27892;52.378;13.122;2023-05-14T06:15:23;8.00;;;5.32;;
42226;SDS011;27892;52.378;13.122;2023-05-14T06:18:07;7.38;;;5.20;;
42226;SDS011;27892;52.378;13.122;2023-05-14T06:20:51;5.72;;;5.13;;
42226;SDS011;27892;52.378;13.122;2023-05-14T06:23:35;7.35;;;5.40;;
42226;SDS011;27892;52.378;13.122;2023-05-14T06:26:20;5.13;;;4.30;;
42226;SDS011;27892;52.378;13.122;2023-05-14T06:29:04;5.35;;;4.80;;
42226;SDS011;27892;52.378;13.122;2023-05-14T06:31:48;8.50;;;5.75;;
42226;SDS011;27892;52.378;13.122;2023-05-14T06:34:32;8.10;;;5.30;;
42226;SDS011;27892;52.378;13.122;2023-05-14T06:37:17;5.95;;;5.07;;
42226;SDS011;27892;52.378;13.122;2023-05-14T06:40:01;7.47;;;5.25;;
42226;SDS011;27892;52.378;13.122;2023-05-14T06:42:46;7.32;;;5.18;;
42226;SDS011;27892;52.378;13.122;2023-05-14T06:45:30;5.57;;;4.78;;
42226;SDS011;27892;52.378;13.122;2023-05-14T06:48:14;7.57;;;5.10;;
42226;SDS011;27892;52.378;13.122;2023-05-14T06:51:01;7.30;;;5.53;;
42226;SDS011;27892;52.378;13.122;2023-05-14T06:53:46;6.43;;;5.18;;
42226;SDS011;27892;52.378;13.122;2023-05-14T06:56:31;4.95;;;4.38;;
42226;SDS011;27892;52.378;13.122;2023-05-14T06:59:16;7.03;;;4.80;;
42226;SDS011;27892;52.378;13.122;2023-05-14T07:02:00;5.05;;;4.60;;
42226;SDS011;27892;52.378;13.122;2023-05-14T07:04:45;6.03;;;5.30;;
42226;SDS011;27892;52.378;13.122;2023-05-14T07:07:30;5.55;;;4.78;;
42226;SDS011;27892;52.378;13.122;2023-05-14T07:10:14;6.20;;;4.40;;
42226;SDS011;27892;52.378;13.122;2023-05-14T07:12:59;9.50;;;4.90;;
42226;SDS011;27892;52.378;13.122;2023-05-14T07:15:43;17.43;;;5.50;;
42226;SDS011;27892;52.378;13.122;2023-05-14T07:18:28;6.15;;;4.47;;
42226;SDS011;27892;52.378;13.122;2023-05-14T07:21:12;7.40;;;5.13;;
42226;SDS011;27892;52.378;13.122;2023-05-14T07:23:56;5.87;;;5.00;;
42226;SDS011;27892;52.378;13.122;2023-05-14T07:26:40;7.87;;;5.07;;
42226;SDS011;27892;52.378;13.122;2023-05-14T07:29:25;9.27;;;4.77;;
42226;SDS011;27892;52.378;13.122;2023-05-14T07:32:09;5.60;;;4.23;;
42226;SDS011;27892;52.378;13.122;2023-05-14T07:34:53;4.07;;;3.77;;
42226;SDS011;27892;52.378;13.122;2023-05-14T07:37:38;5.28;;;4.05;;
42226;SDS011;27892;52.378;13.122;2023-05-14T07:40:23;5.88;;;4.70;;
42226;SDS011;27892;52.378;13.122;2023-05-14T07:43:07;5.45;;;4.35;;
42226;SDS011;27892;52.378;13.122;2023-05-14T07:45:52;5.13;;;4.63;;
42226;SDS011;27892;52.378;13.122;2023-05-14T07:48:38;5.82;;;4.28;;
42226;SDS011;27892;52.378;13.122;2023-05-14T07:51:22;6.47;;;4.50;;
42226;SDS011;27892;52.378;13.122;2023-05-14T07:54:06;4.93;;;4.05;;
42226;SDS011;27892;52.378;13.122;2023-05-14T07:56:50;6.25;;;4.80;;
42226;SDS011;27892;52.378;13.122;2023-05-14T07:59:35;4.05;;;3.65;;
42226;SDS011;27892;52.378;13.122;2023-05-14T08:02:19;4.07;;;3.70;;
42226;SDS011;27892;52.378;13.122;2023-05-14T08:05:04;6.00;;;4.30;;
42226;SDS011;27892;52.378;13.122;2023-05-14T08:07:48;4.13;;;3.75;;
42226;SDS011;27892;52.378;13.122;2023-05-14T08:10:32;9.77;;;4.20;;
42226;SDS011;27892;52.378;13.122;2023-05-14T08:13:17;6.47;;;4.70;;
42226;SDS011;27892;52.378;13.122;2023-05-14T08:16:01;5.35;;;4.07;;
42226;SDS011;27892;52.378;13.122;2023-05-14T08:18:45;5.32;;;4.00;;
42226;SDS011;27892;52.378;13.122;2023-05-14T08:21:29;4.85;;;4.30;;
42226;SDS011;27892;52.378;13.122;2023-05-14T08:24:16;4.45;;;3.97;;
42226;SDS011;27892;52.378;13.122;2023-05-14T08:27:01;4.45;;;3.80;;
42226;SDS011;27892;52.378;13.122;2023-05-14T08:29:45;3.80;;;3.40;;
42226;SDS011;27892;52.378;13.122;2023-05-14T08:32:30;4.35;;;3.72;;
42226;SDS011;27892;52.378;13.122;2023-05-14T08:35:14;5.90;;;4.18;;
42226;SDS011;27892;52.378;13.122;2023-05-14T08:37:58;5.30;;;3.83;;
42226;SDS011;27892;52.378;13.122;2023-05-14T08:40:47;4.95;;;3.85;;
42226;SDS011;27892;52.378;13.122;2023-05-14T08:46:39;4.40;;;4.00;;
42226;SDS011;27892;52.378;13.122;2023-05-14T08:49:35;3.00;;;2.70;;
42226;SDS011;27892;52.378;13.122;2023-05-14T08:52:24;4.40;;;4.00;;
42226;SDS011;27892;52.378;13.122;2023-05-14T08:55:09;4.43;;;4.03;;
42226;SDS011;27892;52.378;13.122;2023-05-14T08:57:55;5.75;;;3.50;;
42226;SDS011;27892;52.378;13.122;2023-05-14T09:00:20;5.32;;;3.75;;
42226;SDS011;27892;52.378;13.122;2023-05-14T09:02:47;5.25;;;3.72;;
42226;SDS011;27892;52.378;13.122;2023-05-14T09:05:13;4.60;;;4.03;;
42226;SDS011;27892;52.378;13.122;2023-05-14T09:08:00;3.67;;;3.30;;
42226;SDS011;27892;52.378;13.122;2023-05-14T09:10:44;11.57;;;9.50;;
42226;SDS011;27892;52.378;13.122;2023-05-14T09:13:28;10.63;;;6.00;;
42226;SDS011;27892;52.378;13.122;2023-05-14T09:16:13;11.65;;;4.40;;
42226;SDS011;27892;52.378;13.122;2023-05-14T09:19:00;5.70;;;4.38;;
42226;SDS011;27892;52.378;13.122;2023-05-14T09:21:46;17.55;;;4.43;;
42226;SDS011;27892;52.378;13.122;2023-05-14T09:24:31;5.78;;;3.60;;
42226;SDS011;27892;52.378;13.122;2023-05-14T09:27:18;4.45;;;3.00;;
42226;SDS011;27892;52.378;13.122;2023-05-14T09:30:07;4.10;;;3.50;;
42226;SDS011;27892;52.378;13.122;2023-05-14T09:32:55;11.73;;;4.28;;
42226;SDS011;27892;52.378;13.122;2023-05-14T09:35:39;6.40;;;3.70;;
42226;SDS011;27892;52.378;13.122;2023-05-14T09:38:29;5.47;;;3.33;;
42226;SDS011;27892;52.378;13.122;2023-05-14T09:41:13;3.47;;;3.17;;
42226;SDS011;27892;52.378;13.122;2023-05-14T09:43:59;4.07;;;3.20;;
42226;SDS011;27892;52.378;13.122;2023-05-14T09:46:44;3.80;;;3.13;;
42226;SDS011;27892;52.378;13.122;2023-05-14T09:49:29;3.20;;;3.00;;
42226;SDS011;27892;52.378;13.122;2023-05-14T09:52:14;3.55;;;3.22;;
42226;SDS011;27892;52.378;13.122;2023-05-14T09:55:01;8.52;;;3.40;;
42226;SDS011;27892;52.378;13.122;2023-05-14T09:57:45;4.63;;;3.80;;
42226;SDS011;27892;52.378;13.122;2023-05-14T10:00:33;4.15;;;3.28;;
42226;SDS011;27892;52.378;13.122;2023-05-14T10:03:18;4.65;;;3.28;;
42226;SDS011;27892;52.378;13.122;2023-05-14T10:06:05;3.30;;;3.10;;
42226;SDS011;27892;52.378;13.122;2023-05-14T10:08:52;4.88;;;3.30;;
42226;SDS011;27892;52.378;13.122;2023-05-14T10:11:41;5.68;;;3.42;;
42226;SDS011;27892;52.378;13.122;2023-05-14T10:14:35;3.72;;;3.40;;
42226;SDS011;27892;52.378;13.122;2023-05-14T10:17:24;6.13;;;3.60;;
42226;SDS011;27892;52.378;13.122;2023-05-14T10:20:14;4.60;;;3.60;;
42226;SDS011;27892;52.378;13.122;2023-05-14T10:23:01;4.57;;;3.55;;
42226;SDS011;27892;52.378;13.122;2023-05-14T10:25:46;3.95;;;3.28;;
42226;SDS011;27892;52.378;13.122;2023-05-14T10:28:30;4.28;;;3.22;;
42226;SDS011;27892;52.378;13.122;2023-05-14T10:31:15;6.57;;;3.60;;
42226;SDS011;27892;52.378;13.122;2023-05-14T10:34:00;7.30;;;3.40;;
42226;SDS011;27892;52.378;13.122;2023-05-14T10:36:44;3.58;;;3.22;;
42226;SDS011;27892;52.378;13.122;2023-05-14T10:39:41;5.25;;;3.10;;
42226;SDS011;27892;52.378;13.122;2023-05-14T10:43:01;5.03;;;3.10;;
42226;SDS011;27892;52.378;13.122;2023-05-14T10:45:47;3.50;;;3.20;;
42226;SDS011;27892;52.378;13.122;2023-05-14T10:48:32;4.78;;;3.20;;
42226;SDS011;27892;52.378;13.122;2023-05-14T10:51:17;3.60;;;2.80;;
42226;SDS011;27892;52.378;13.122;2023-05-14T10:54:03;4.40;;;3.60;;
42226;SDS011;27892;52.378;13.122;2023-05-14T10:56:51;8.48;;;2.95;;
42226;SDS011;27892;52.378;13.122;2023-05-14T10:59:36;4.38;;;3.03;;
42226;SDS011;27892;52.378;13.122;2023-05-14T11:05:14;3.28;;;2.97;;
42226;SDS011;27892;52.378;13.122;2023-05-14T11:08:00;3.10;;;2.60;;
42226;SDS011;27892;52.378;13.122;2023-05-14T11:10:48;3.03;;;2.75;;
42226;SDS011;27892;52.378;13.122;2023-05-14T11:13:33;2.65;;;2.40;;
42226;SDS011;27892;52.378;13.122;2023-05-14T11:16:19;6.25;;;3.80;;
42226;SDS011;27892;52.378;13.122;2023-05-14T11:19:05;4.57;;;3.00;;
42226;SDS011;27892;52.378;13.122;2023-05-14T11:21:49;3.50;;;2.85;;
42226;SDS011;27892;52.378;13.122;2023-05-14T11:24:34;3.30;;;2.88;;
42226;SDS011;27892;52.378;13.122;2023-05-14T11:27:18;8.32;;;3.15;;
42226;SDS011;27892;52.378;13.122;2023-05-14T11:30:04;3.45;;;3.15;;
42226;SDS011;27892;52.378;13.122;2023-05-14T11:32:55;3.45;;;3.15;;
42226;SDS011;27892;52.378;13.122;2023-05-14T11:35:39;5.00;;;3.10;;
42226;SDS011;27892;52.378;13.122;2023-05-14T11:38:25;3.13;;;2.80;;
42226;SDS011;27892;52.378;13.122;2023-05-14T11:41:09;4.78;;;3.05;;
42226;SDS011;27892;52.378;13.122;2023-05-14T11:43:56;5.13;;;3.45;;
42226;SDS011;27892;52.378;13.122;2023-05-14T11:46:43;2.85;;;2.65;;
42226;SDS011;27892;52.378;13.122;2023-05-14T11:49:37;3.03;;;2.67;;
42226;SDS011;27892;52.378;13.122;2023-05-14T11:52:21;3.78;;;2.80;;
42226;SDS011;27892;52.378;13.122;2023-05-14T11:55:09;4.13;;;3.08;;
42226;SDS011;27892;52.378;13.122;2023-05-14T11:57:55;3.13;;;2.83;;
42226;SDS011;27892;52.378;13.122;2023-05-14T12:00:39;5.50;;;3.70;;
42226;SDS011;27892;52.378;13.122;2023-05-14T12:03:24;3.30;;;3.00;;
42226;SDS011;27892;52.378;13.122;2023-05-14T12:06:09;3.20;;;2.90;;
42226;SDS011;27892;52.378;13.122;2023-05-14T12:08:54;3.97;;;3.05;;
42226;SDS011;27892;52.378;13.122;2023-05-14T12:11:20;3.55;;;3.20;;
42226;SDS011;27892;52.378;13.122;2023-05-14T12:13:46;3.33;;;3.03;;
42226;SDS011;27892;52.378;13.122;2023-05-14T12:16:11;3.45;;;2.97;;
42226;SDS011;27892;52.378;13.122;2023-05-14T12:18:59;3.13;;;2.60;;
42226;SDS011;27892;52.378;13.122;2023-05-14T12:21:45;3.88;;;3.00;;
42226;SDS011;27892;52.378;13.122;2023-05-14T12:24:30;5.25;;;3.30;;
42226;SDS011;27892;52.378;13.122;2023-05-14T12:27:15;3.60;;;3.30;;
42226;SDS011;27892;52.378;13.122;2023-05-14T12:30:02;4.75;;;4.20;;
42226;SDS011;27892;52.378;13.122;2023-05-14T12:32:48;3.65;;;2.95;;
42226;SDS011;27892;52.378;13.122;2023-05-14T12:35:35;4.47;;;3.45;;
42226;SDS011;27892;52.378;13.122;2023-05-14T12:38:19;3.83;;;3.08;;
42226;SDS011;27892;52.378;13.122;2023-05-14T12:41:04;3.63;;;3.03;;
42226;SDS011;27892;52.378;13.122;2023-05-14T12:43:48;2.78;;;2.58;;
42226;SDS011;27892;52.378;13.122;2023-05-14T12:46:32;3.88;;;3.10;;
42226;SDS011;27892;52.378;13.122;2023-05-14T12:49:17;2.95;;;2.60;;
42226;SDS011;27892;52.378;13.122;2023-05-14T12:52:02;2.40;;;2.20;;
42226;SDS011;27892;52.378;13.122;2023-05-14T12:54:47;3.90;;;3.50;;
42226;SDS011;27892;52.378;13.122;2023-05-14T12:57:31;3.50;;;3.10;;
42226;SDS011;27892;52.378;13.122;2023-05-14T13:00:17;6.07;;;3.13;;
42226;SDS011;27892;52.378;13.122;2023-05-14T13:03:01;3.05;;;2.78;;
42226;SDS011;27892;52.378;13.122;2023-05-14T13:05:45;4.20;;;2.97;;
42226;SDS011;27892;52.378;13.122;2023-05-14T13:08:29;3.17;;;2.88;;
42226;SDS011;27892;52.378;13.122;2023-05-14T13:11:13;4.28;;;3.00;;
42226;SDS011;27892;52.378;13.122;2023-05-14T13:13:58;4.72;;;3.53;;
42226;SDS011;27892;52.378;13.122;2023-05-14T13:16:44;3.10;;;2.67;;
42226;SDS011;27892;52.378;13.122;2023-05-14T13:19:28;3.80;;;2.90;;
42226;SDS011;27892;52.378;13.122;2023-05-14T13:22:12;3.75;;;2.92;;
42226;SDS011;27892;52.378;13.122;2023-05-14T13:24:57;3.38;;;3.08;;
42226;SDS011;27892;52.378;13.122;2023-05-14T13:27:41;4.32;;;2.90;;
42226;SDS011;27892;52.378;13.122;2023-05-14T13:30:25;3.03;;;2.80;;
42226;SDS011;27892;52.378;13.122;2023-05-14T13:33:10;3.40;;;3.10;;
42226;SDS011;27892;52.378;13.122;2023-05-14T13:35:54;4.32;;;2.42;;
42226;SDS011;27892;52.378;13.122;2023-05-14T13:38:38;3.45;;;3.05;;
42226;SDS011;27892;52.378;13.122;2023-05-14T13:41:22;3.13;;;2.80;;
42226;SDS011;27892;52.378;13.122;2023-05-14T13:44:08;3.72;;;2.80;;
42226;SDS011;27892;52.378;13.122;2023-05-14T13:46:52;3.10;;;2.80;;
42226;SDS011;27892;52.378;13.122;2023-05-14T13:49:37;3.25;;;2.55;;
42226;SDS011;27892;52.378;13.122;2023-05-14T13:52:21;3.80;;;2.70;;
42226;SDS011;27892;52.378;13.122;2023-05-14T13:55:06;5.80;;;2.75;;
42226;SDS011;27892;52.378;13.122;2023-05-14T13:57:50;2.97;;;2.70;;
42226;SDS011;27892;52.378;13.122;2023-05-14T14:00:34;2.65;;;2.45;;
42226;SDS011;27892;52.378;13.122;2023-05-14T14:03:18;3.00;;;2.65;;
42226;SDS011;27892;52.378;13.122;2023-05-14T14:06:03;4.25;;;2.60;;
42226;SDS011;27892;52.378;13.122;2023-05-14T14:08:47;2.35;;;2.15;;
42226;SDS011;27892;52.378;13.122;2023-05-14T14:11:31;3.38;;;2.55;;
42226;SDS011;27892;52.378;13.122;2023-05-14T14:14:15;3.28;;;2.80;;
42226;SDS011;27892;52.378;13.122;2023-05-14T14:17:00;4.10;;;3.00;;
42226;SDS011;27892;52.378;13.122;2023-05-14T14:19:45;2.50;;;2.30;;
42226;SDS011;27892;52.378;13.122;2023-05-14T14:22:29;2.55;;;2.35;;
42226;SDS011;27892;52.378;13.122;2023-05-14T14:25:13;2.72;;;2.40;;
42226;SDS011;27892;52.378;13.122;2023-05-14T14:27:57;2.17;;;2.08;;
42226;SDS011;27892;52.378;13.122;2023-05-14T14:30:41;2.47;;;2.22;;
42226;SDS011;27892;52.378;13.122;2023-05-14T14:33:26;2.20;;;2.00;;
42226;SDS011;27892;52.378;13.122;2023-05-14T14:36:10;1.80;;;1.70;;
42226;SDS011;27892;52.378;13.122;2023-05-14T14:38:55;1.55;;;1.50;;
42226;SDS011;27892;52.378;13.122;2023-05-14T14:41:39;1.60;;;1.50;;
42226;SDS011;27892;52.378;13.122;2023-05-14T14:44:23;1.42;;;1.33;;
42226;SDS011;27892;52.378;13.122;2023-05-14T14:47:08;1.65;;;1.55;;
42226;SDS011;27892;52.378;13.122;2023-05-14T14:49:52;2.00;;;1.80;;
42226;SDS011;27892;52.378;13.122;2023-05-14T14:52:37;1.90;;;1.80;;
42226;SDS011;27892;52.378;13.122;2023-05-14T14:55:22;1.70;;;1.60;;
42226;SDS011;27892;52.378;13.122;2023-05-14T14:58:06;1.50;;;1.40;;
42226;SDS011;27892;52.378;13.122;2023-05-14T15:00:52;2.78;;;2.58;;
42226;SDS011;27892;52.378;13.122;2023-05-14T15:03:37;3.47;;;2.83;;
42226;SDS011;27892;52.378;13.122;2023-05-14T15:06:21;2.38;;;2.28;;
42226;SDS011;27892;52.378;13.122;2023-05-14T15:09:05;3.10;;;2.80;;
42226;SDS011;27892;52.378;13.122;2023-05-14T15:11:50;3.20;;;2.90;;
42226;SDS011;27892;52.378;13.122;2023-05-14T15:14:34;2.60;;;2.40;;
42226;SDS011;27892;52.378;13.122;2023-05-14T15:17:19;3.08;;;2.50;;
42226;SDS011;27892;52.378;13.122;2023-05-14T15:20:03;5.70;;;2.67;;
42226;SDS011;27892;52.378;13.122;2023-05-14T15:22:49;5.20;;;2.95;;
42226;SDS011;27892;52.378;13.122;2023-05-14T15:25:36;15.60;;;3.47;;
42226;SDS011;27892;52.378;13.122;2023-05-14T15:28:20;4.97;;;2.88;;
42226;SDS011;27892;52.378;13.122;2023-05-14T15:31:04;3.42;;;2.90;;
42226;SDS011;27892;52.378;13.122;2023-05-14T15:33:52;2.95;;;2.60;;
42226;SDS011;27892;52.378;13.122;2023-05-14T15:36:38;2.67;;;2.45;;
42226;SDS011;27892;52.378;13.122;2023-05-14T15:39:23;3.50;;;2.70;;
42226;SDS011;27892;52.378;13.122;2023-05-14T15:42:08;4.88;;;3.03;;
42226;SDS011;27892;52.378;13.122;2023-05-14T15:44:53;3.33;;;2.53;;
42226;SDS011;27892;52.378;13.122;2023-05-14T15:47:38;2.75;;;2.55;;
42226;SDS011;27892;52.378;13.122;2023-05-14T15:50:23;3.05;;;2.35;;
42226;SDS011;27892;52.378;13.122;2023-05-14T15:53:10;3.85;;;2.55;;
42226;SDS011;27892;52.378;13.122;2023-05-14T15:55:53;3.17;;;2.70;;
42226;SDS011;27892;52.378;13.122;2023-05-14T15:58:39;2.95;;;2.50;;
42226;SDS011;27892;52.378;13.122;2023-05-14T16:01:23;3.50;;;2.80;;
42226;SDS011;27892;52.378;13.122;2023-05-14T16:04:07;4.40;;;2.85;;
42226;SDS011;27892;52.378;13.122;2023-05-14T16:06:51;2.63;;;2.42;;
42226;SDS011;27892;52.378;13.122;2023-05-14T16:09:35;4.47;;;2.92;;
42226;SDS011;27892;52.378;13.122;2023-05-14T16:12:19;3.25;;;2.70;;
42226;SDS011;27892;52.378;13.122;2023-05-14T16:15:03;2.85;;;2.65;;
42226;SDS011;27892;52.378;13.122;2023-05-14T16:17:49;3.80;;;2.55;;
42226;SDS011;27892;52.378;13.122;2023-05-14T16:20:33;2.90;;;2.70;;
42226;SDS011;27892;52.378;13.122;2023-05-14T16:23:18;3.30;;;3.00;;
42226;SDS011;27892;52.378;13.122;2023-05-14T16:26:04;4.68;;;4.03;;